sensor_id;sensor_type;location;lat;lon;timestamp;pressure;altitude;pressure_sealevel;temperature;humidity
12951;BME280;6540;50.858;7.232;2024-03-02T00:02:24;52100.66;;;-142.34;33.49
12951;BME280;6540;50.858;7.232;2024-03-02T00:04:50;52050.22;;;-142.34;34.06
12951;BME280;6540;50.858;7.232;2024-03-02T00:07:16;52078.47;;;-142.34;34.09
12951;BME280;6540;50.858;7.232;2024-03-02T00:09:42;52046.19;;;-142.34;33.48
12951;BME280;6540;50.858;7.232;2024-03-02T00:12:08;52052.25;;;-142.34;34.04
12951;BME280;6540;50.858;7.232;2024-03-02T00:14:33;52044.19;;;-142.34;33.34
12951;BME280;6540;50.858;7.232;2024-03-02T00:16:58;52056.28;;;-142.34;33.83
12951;BME280;6540;50.858;7.232;2024-03-02T00:19:24;52036.09;;;-142.34;33.71
12951;BME280;6540;50.858;7.232;2024-03-02T00:21:50;52060.31;;;-142.34;33.65
12951;BME280;6540;50.858;7.232;2024-03-02T00:24:25;52068.38;;;-142.34;34.29
12951;BME280;6540;50.858;7.232;2024-03-02T00:26:56;52054.25;;;-142.34;34.37
12951;BME280;6540;50.858;7.232;2024-03-02T00:29:21;52058.28;;;-142.34;33.44
12951;BME280;6540;50.858;7.232;2024-03-02T00:31:47;52096.63;;;-142.34;33.43
12951;BME280;6540;50.858;7.232;2024-03-02T00:34:13;52088.56;;;-142.34;34.00
12951;BME280;6540;50.858;7.232;2024-03-02T00:36:41;52048.22;;;-142.34;33.80
12951;BME280;6540;50.858;7.232;2024-03-02T00:39:07;52044.19;;;-142.34;33.18
12951;BME280;6540;50.858;7.232;2024-03-02T00:41:33;52072.41;;;-142.34;34.09
12951;BME280;6540;50.858;7.232;2024-03-02T00:46:29;52032.06;;;-142.34;33.53
12951;BME280;6540;50.858;7.232;2024-03-02T00:51:22;52052.25;;;-142.34;32.89
12951;BME280;6540;50.858;7.232;2024-03-02T00:53:49;52038.13;;;-142.34;33.25
12951;BME280;6540;50.858;7.232;2024-03-02T00:56:15;52034.09;;;-142.34;33.02
12951;BME280;6540;50.858;7.232;2024-03-02T00:58:41;52052.25;;;-142.34;33.09
12951;BME280;6540;50.858;7.232;2024-03-02T01:01:06;52108.72;;;-142.34;32.62
12951;BME280;6540;50.858;7.232;2024-03-02T01:03:33;52068.38;;;-142.34;32.95
12951;BME280;6540;50.858;7.232;2024-03-02T01:05:58;52070.41;;;-142.34;32.54
12951;BME280;6540;50.858;7.232;2024-03-02T01:08:24;52074.44;;;-142.34;32.99
12951;BME280;6540;50.858;7.232;2024-03-02T01:10:50;52028.03;;;-142.34;33.16
12951;BME280;6540;50.858;7.232;2024-03-02T01:13:15;52088.56;;;-142.34;32.94
12951;BME280;6540;50.858;7.232;2024-03-02T01:15:41;52068.38;;;-142.34;32.94
12951;BME280;6540;50.858;7.232;2024-03-02T01:18:06;52068.38;;;-142.34;33.05
12951;BME280;6540;50.858;7.232;2024-03-02T01:20:31;52046.19;;;-142.34;33.66
12951;BME280;6540;50.858;7.232;2024-03-02T01:22:57;52056.28;;;-142.34;33.02
12951;BME280;6540;50.858;7.232;2024-03-02T01:25:22;52062.34;;;-142.34;32.97
12951;BME280;6540;50.858;7.232;2024-03-02T01:27:48;52040.13;;;-142.34;32.54
12951;BME280;6540;50.858;7.232;2024-03-02T01:30:13;52072.41;;;-142.34;32.98
12951;BME280;6540;50.858;7.232;2024-03-02T01:32:39;52060.31;;;-142.34;32.88
12951;BME280;6540;50.858;7.232;2024-03-02T01:35:05;52052.25;;;-142.34;32.79
12951;BME280;6540;50.858;7.232;2024-03-02T01:37:30;52100.66;;;-142.34;33.03
12951;BME280;6540;50.858;7.232;2024-03-02T01:39:56;52044.19;;;-142.34;33.56
12951;BME280;6540;50.858;7.232;2024-03-02T01:42:21;52036.09;;;-142.34;33.62
12951;BME280;6540;50.858;7.232;2024-03-02T01:44:47;52042.16;;;-142.34;33.27
12951;BME280;6540;50.858;7.232;2024-03-02T01:47:12;52052.25;;;-142.34;32.81
12951;BME280;6540;50.858;7.232;2024-03-02T01:49:38;52050.22;;;-142.34;33.45
12951;BME280;6540;50.858;7.232;2024-03-02T01:52:04;52066.38;;;-142.34;32.52
12951;BME280;6540;50.858;7.232;2024-03-02T01:54:29;52062.34;;;-142.34;33.00
12951;BME280;6540;50.858;7.232;2024-03-02T01:56:54;52064.34;;;-142.34;33.46
12951;BME280;6540;50.858;7.232;2024-03-02T01:59:20;52070.41;;;-142.34;33.05
12951;BME280;6540;50.858;7.232;2024-03-02T02:01:45;52048.22;;;-142.34;33.05
12951;BME280;6540;50.858;7.232;2024-03-02T02:04:11;52032.06;;;-142.34;33.42
12951;BME280;6540;50.858;7.232;2024-03-02T02:06:36;52048.22;;;-142.34;32.78
12951;BME280;6540;50.858;7.232;2024-03-02T02:09:02;52026.03;;;-142.34;32.56
12951;BME280;6540;50.858;7.232;2024-03-02T02:11:27;52104.69;;;-142.34;33.08
12951;BME280;6540;50.858;7.232;2024-03-02T02:13:53;52032.06;;;-142.34;32.93
12951;BME280;6540;50.858;7.232;2024-03-02T02:16:20;52060.31;;;-142.34;33.22
12951;BME280;6540;50.858;7.232;2024-03-02T02:18:46;52048.22;;;-142.34;32.60
12951;BME280;6540;50.858;7.232;2024-03-02T02:21:11;52042.16;;;-142.34;33.25
12951;BME280;6540;50.858;7.232;2024-03-02T02:23:36;52019.97;;;-142.34;33.20
12951;BME280;6540;50.858;7.232;2024-03-02T02:26:02;52080.50;;;-142.34;32.83
12951;BME280;6540;50.858;7.232;2024-03-02T02:28:29;52084.53;;;-142.34;33.51
12951;BME280;6540;50.858;7.232;2024-03-02T02:30:55;52040.13;;;-142.34;33.04
12951;BME280;6540;50.858;7.232;2024-03-02T02:33:21;52048.22;;;-142.34;33.49
12951;BME280;6540;50.858;7.232;2024-03-02T02:35:46;52084.53;;;-142.34;33.32
12951;BME280;6540;50.858;7.232;2024-03-02T02:38:12;52074.44;;;-142.34;33.27
12951;BME280;6540;50.858;7.232;2024-03-02T02:40:37;52060.31;;;-142.34;32.54
12951;BME280;6540;50.858;7.232;2024-03-02T02:43:03;52072.41;;;-142.34;33.11
12951;BME280;6540;50.858;7.232;2024-03-02T02:45:28;52015.94;;;-142.34;33.25
12951;BME280;6540;50.858;7.232;2024-03-02T02:47:54;52076.44;;;-142.34;32.74
12951;BME280;6540;50.858;7.232;2024-03-02T02:50:19;52019.97;;;-142.34;33.24
12951;BME280;6540;50.858;7.232;2024-03-02T02:52:45;52080.50;;;-142.34;32.41
12951;BME280;6540;50.858;7.232;2024-03-02T02:55:12;52060.31;;;-142.34;32.47
12951;BME280;6540;50.858;7.232;2024-03-02T02:57:40;52024.00;;;-142.34;33.34
12951;BME280;6540;50.858;7.232;2024-03-02T03:00:08;52036.09;;;-142.34;33.69
12951;BME280;6540;50.858;7.232;2024-03-02T03:02:44;52028.03;;;-142.34;33.52
12951;BME280;6540;50.858;7.232;2024-03-02T03:05:11;52038.13;;;-142.34;33.44
12951;BME280;6540;50.858;7.232;2024-03-02T03:07:39;52060.31;;;-142.34;33.52
12951;BME280;6540;50.858;7.232;2024-03-02T03:10:05;52072.41;;;-142.34;33.35
12951;BME280;6540;50.858;7.232;2024-03-02T03:12:32;52036.09;;;-142.34;32.65
12951;BME280;6540;50.858;7.232;2024-03-02T03:14:57;52044.19;;;-142.34;33.37
12951;BME280;6540;50.858;7.232;2024-03-02T03:17:23;52038.13;;;-142.34;32.59
12951;BME280;6540;50.858;7.232;2024-03-02T03:19:49;52040.13;;;-142.34;33.14
12951;BME280;6540;50.858;7.232;2024-03-02T03:22:14;52086.53;;;-142.34;33.15
12951;BME280;6540;50.858;7.232;2024-03-02T03:24:39;52062.34;;;-142.34;32.50
12951;BME280;6540;50.858;7.232;2024-03-02T03:27:05;52040.13;;;-142.34;32.21
12951;BME280;6540;50.858;7.232;2024-03-02T03:29:30;52068.38;;;-142.34;32.28
12951;BME280;6540;50.858;7.232;2024-03-02T03:31:55;52032.06;;;-142.34;32.99
12951;BME280;6540;50.858;7.232;2024-03-02T03:34:21;52088.56;;;-142.34;32.59
12951;BME280;6540;50.858;7.232;2024-03-02T03:36:46;52070.41;;;-142.34;32.54
12951;BME280;6540;50.858;7.232;2024-03-02T03:39:11;52042.16;;;-142.34;33.13
12951;BME280;6540;50.858;7.232;2024-03-02T03:41:37;52080.50;;;-142.34;32.98
12951;BME280;6540;50.858;7.232;2024-03-02T03:44:02;52068.38;;;-142.34;32.66
12951;BME280;6540;50.858;7.232;2024-03-02T03:46:28;52040.13;;;-142.34;32.56
12951;BME280;6540;50.858;7.232;2024-03-02T03:48:54;52076.44;;;-142.34;33.17
12951;BME280;6540;50.858;7.232;2024-03-02T03:51:21;52080.50;;;-142.34;32.40
12951;BME280;6540;50.858;7.232;2024-03-02T03:53:47;52098.66;;;-142.34;33.62
12951;BME280;6540;50.858;7.232;2024-03-02T03:56:12;52046.19;;;-142.34;32.68
12951;BME280;6540;50.858;7.232;2024-03-02T03:58:38;52078.47;;;-142.34;33.30
12951;BME280;6540;50.858;7.232;2024-03-02T04:01:03;52028.03;;;-142.34;32.41
12951;BME280;6540;50.858;7.232;2024-03-02T04:03:30;52056.28;;;-142.34;32.69
12951;BME280;6540;50.858;7.232;2024-03-02T04:05:56;52064.34;;;-142.34;33.45
12951;BME280;6540;50.858;7.232;2024-03-02T04:08:21;52042.16;;;-142.34;32.68
12951;BME280;6540;50.858;7.232;2024-03-02T04:10:46;52042.16;;;-142.34;32.98
12951;BME280;6540;50.858;7.232;2024-03-02T04:13:12;52080.50;;;-142.34;32.25
12951;BME280;6540;50.858;7.232;2024-03-02T04:15:37;52090.56;;;-142.34;32.59
12951;BME280;6540;50.858;7.232;2024-03-02T04:18:03;52064.34;;;-142.34;33.85
12951;BME280;6540;50.858;7.232;2024-03-02T04:20:28;52044.19;;;-142.34;32.31
12951;BME280;6540;50.858;7.232;2024-03-02T04:22:55;52088.56;;;-142.34;33.05
12951;BME280;6540;50.858;7.232;2024-03-02T04:25:20;52072.41;;;-142.34;33.44
12951;BME280;6540;50.858;7.232;2024-03-02T04:27:45;52080.50;;;-142.34;32.83
12951;BME280;6540;50.858;7.232;2024-03-02T04:30:11;52032.06;;;-142.34;32.88
12951;BME280;6540;50.858;7.232;2024-03-02T04:32:37;52062.34;;;-142.34;33.42
12951;BME280;6540;50.858;7.232;2024-03-02T04:35:02;52086.53;;;-142.34;33.44
12951;BME280;6540;50.858;7.232;2024-03-02T04:37:28;52056.28;;;-142.34;32.83
12951;BME280;6540;50.858;7.232;2024-03-02T04:39:53;52070.41;;;-142.34;32.84
12951;BME280;6540;50.858;7.232;2024-03-02T04:42:19;52056.28;;;-142.34;32.79
12951;BME280;6540;50.858;7.232;2024-03-02T04:44:44;52080.50;;;-142.34;33.56
12951;BME280;6540;50.858;7.232;2024-03-02T04:47:09;52064.34;;;-142.34;33.27
12951;BME280;6540;50.858;7.232;2024-03-02T04:49:35;52096.63;;;-142.34;32.62
12951;BME280;6540;50.858;7.232;2024-03-02T04:52:00;52090.56;;;-142.34;33.43
12951;BME280;6540;50.858;7.232;2024-03-02T04:54:25;52060.31;;;-142.34;32.67
12951;BME280;6540;50.858;7.232;2024-03-02T04:56:51;52072.41;;;-142.34;32.91
12951;BME280;6540;50.858;7.232;2024-03-02T04:59:17;52058.28;;;-142.34;32.93
12951;BME280;6540;50.858;7.232;2024-03-02T05:01:43;52056.28;;;-142.34;33.20
12951;BME280;6540;50.858;7.232;2024-03-02T05:04:08;52076.44;;;-142.34;32.96
12951;BME280;6540;50.858;7.232;2024-03-02T05:06:37;52052.25;;;-142.34;32.76
12951;BME280;6540;50.858;7.232;2024-03-02T05:09:02;52080.50;;;-142.34;33.76
12951;BME280;6540;50.858;7.232;2024-03-02T05:11:27;52070.41;;;-142.34;33.34
12951;BME280;6540;50.858;7.232;2024-03-02T05:14:02;52090.56;;;-142.34;33.15
12951;BME280;6540;50.858;7.232;2024-03-02T05:16:27;52048.22;;;-142.34;33.14
12951;BME280;6540;50.858;7.232;2024-03-02T05:18:53;52078.47;;;-142.34;33.07
12951;BME280;6540;50.858;7.232;2024-03-02T05:21:18;52070.41;;;-142.34;33.22
12951;BME280;6540;50.858;7.232;2024-03-02T05:23:43;52050.22;;;-142.34;33.15
12951;BME280;6540;50.858;7.232;2024-03-02T05:26:09;52044.19;;;-142.34;33.72
12951;BME280;6540;50.858;7.232;2024-03-02T05:28:38;52082.50;;;-142.34;33.27
12951;BME280;6540;50.858;7.232;2024-03-02T05:31:03;52056.28;;;-142.34;32.76
12951;BME280;6540;50.858;7.232;2024-03-02T05:33:29;52062.34;;;-142.34;34.04
12951;BME280;6540;50.858;7.232;2024-03-02T05:35:56;52015.94;;;-142.34;33.21
12951;BME280;6540;50.858;7.232;2024-03-02T05:38:21;52048.22;;;-142.34;33.39
12951;BME280;6540;50.858;7.232;2024-03-02T05:40:47;52044.19;;;-142.34;33.49
12951;BME280;6540;50.858;7.232;2024-03-02T05:43:12;52072.41;;;-142.34;32.96
12951;BME280;6540;50.858;7.232;2024-03-02T05:45:38;52056.28;;;-142.34;32.97
12951;BME280;6540;50.858;7.232;2024-03-02T05:48:05;52108.72;;;-142.34;33.27
12951;BME280;6540;50.858;7.232;2024-03-02T05:50:31;52050.22;;;-142.34;33.95
12951;BME280;6540;50.858;7.232;2024-03-02T05:52:56;52052.25;;;-142.34;33.42
12951;BME280;6540;50.858;7.232;2024-03-02T05:55:22;52038.13;;;-142.34;33.39
12951;BME280;6540;50.858;7.232;2024-03-02T05:57:47;52084.53;;;-142.34;33.27
12951;BME280;6540;50.858;7.232;2024-03-02T06:00:24;52034.09;;;-142.34;33.14
12951;BME280;6540;50.858;7.232;2024-03-02T06:02:50;52046.19;;;-142.34;33.57
12951;BME280;6540;50.858;7.232;2024-03-02T06:05:15;52072.41;;;-142.34;34.10
12951;BME280;6540;50.858;7.232;2024-03-02T06:07:43;52062.34;;;-142.34;33.01
12951;BME280;6540;50.858;7.232;2024-03-02T06:10:08;52056.28;;;-142.34;33.07
12951;BME280;6540;50.858;7.232;2024-03-02T06:12:37;52058.28;;;-142.34;33.53
12951;BME280;6540;50.858;7.232;2024-03-02T06:15:02;52076.44;;;-142.34;33.18
12951;BME280;6540;50.858;7.232;2024-03-02T06:17:29;52080.50;;;-142.34;33.25
12951;BME280;6540;50.858;7.232;2024-03-02T06:19:54;52048.22;;;-142.34;33.29
12951;BME280;6540;50.858;7.232;2024-03-02T06:22:19;52050.22;;;-142.34;33.19
12951;BME280;6540;50.858;7.232;2024-03-02T06:24:44;52054.25;;;-142.34;33.22
12951;BME280;6540;50.858;7.232;2024-03-02T06:27:10;52072.41;;;-142.34;33.39
12951;BME280;6540;50.858;7.232;2024-03-02T06:29:35;52086.53;;;-142.34;33.05
12951;BME280;6540;50.858;7.232;2024-03-02T06:32:01;52046.19;;;-142.34;34.04
12951;BME280;6540;50.858;7.232;2024-03-02T06:34:26;52080.50;;;-142.34;34.18
12951;BME280;6540;50.858;7.232;2024-03-02T06:36:51;52046.19;;;-142.34;33.65
12951;BME280;6540;50.858;7.232;2024-03-02T06:39:17;52080.50;;;-142.34;34.26
12951;BME280;6540;50.858;7.232;2024-03-02T06:41:42;52042.16;;;-142.34;34.24
12951;BME280;6540;50.858;7.232;2024-03-02T06:44:08;52044.19;;;-142.34;33.01
12951;BME280;6540;50.858;7.232;2024-03-02T06:46:33;52060.31;;;-142.34;33.46
12951;BME280;6540;50.858;7.232;2024-03-02T06:48:58;52064.34;;;-142.34;33.61
12951;BME280;6540;50.858;7.232;2024-03-02T06:51:24;52080.50;;;-142.34;32.97
12951;BME280;6540;50.858;7.232;2024-03-02T06:53:49;52060.31;;;-142.34;32.91
12951;BME280;6540;50.858;7.232;2024-03-02T06:56:17;52084.53;;;-142.34;33.00
12951;BME280;6540;50.858;7.232;2024-03-02T06:58:42;52064.34;;;-142.34;33.54
12951;BME280;6540;50.858;7.232;2024-03-02T07:01:08;52064.34;;;-142.34;33.01
12951;BME280;6540;50.858;7.232;2024-03-02T07:03:34;52044.19;;;-142.34;32.54
12951;BME280;6540;50.858;7.232;2024-03-02T07:05:59;52046.19;;;-142.34;33.55
12951;BME280;6540;50.858;7.232;2024-03-02T07:08:24;52074.44;;;-142.34;33.10
12951;BME280;6540;50.858;7.232;2024-03-02T07:10:49;52070.41;;;-142.34;33.70
12951;BME280;6540;50.858;7.232;2024-03-02T07:13:15;52052.25;;;-142.34;33.94
12951;BME280;6540;50.858;7.232;2024-03-02T07:15:40;52076.44;;;-142.34;34.25
12951;BME280;6540;50.858;7.232;2024-03-02T07:18:31;52044.19;;;-142.34;33.45
12951;BME280;6540;50.858;7.232;2024-03-02T07:20:58;52060.31;;;-142.34;34.18
12951;BME280;6540;50.858;7.232;2024-03-02T07:23:26;52046.19;;;-142.34;33.71
12951;BME280;6540;50.858;7.232;2024-03-02T07:25:53;52084.53;;;-142.34;33.10
12951;BME280;6540;50.858;7.232;2024-03-02T07:28:21;52044.19;;;-142.34;33.63
12951;BME280;6540;50.858;7.232;2024-03-02T07:30:47;52042.16;;;-142.34;33.05
12951;BME280;6540;50.858;7.232;2024-03-02T07:33:12;52064.34;;;-142.34;32.78
12951;BME280;6540;50.858;7.232;2024-03-02T07:35:37;52040.13;;;-142.34;32.67
12951;BME280;6540;50.858;7.232;2024-03-02T07:38:03;52068.38;;;-142.34;33.27
12951;BME280;6540;50.858;7.232;2024-03-02T07:40:28;52026.03;;;-142.34;33.46
12951;BME280;6540;50.858;7.232;2024-03-02T07:42:54;52086.53;;;-142.34;34.26
12951;BME280;6540;50.858;7.232;2024-03-02T07:45:20;52044.19;;;-142.34;34.04
12951;BME280;6540;50.858;7.232;2024-03-02T07:47:46;52068.38;;;-142.34;33.64
12951;BME280;6540;50.858;7.232;2024-03-02T07:50:11;52090.56;;;-142.34;33.65
12951;BME280;6540;50.858;7.232;2024-03-02T07:52:37;52072.41;;;-142.34;33.65
12951;BME280;6540;50.858;7.232;2024-03-02T07:55:02;52072.41;;;-142.34;33.53
12951;BME280;6540;50.858;7.232;2024-03-02T07:57:27;52072.41;;;-142.34;33.22
12951;BME280;6540;50.858;7.232;2024-03-02T07:59:53;52064.34;;;-142.34;33.63
12951;BME280;6540;50.858;7.232;2024-03-02T08:02:19;52052.25;;;-142.34;32.62
12951;BME280;6540;50.858;7.232;2024-03-02T08:04:45;52042.16;;;-142.34;33.03
12951;BME280;6540;50.858;7.232;2024-03-02T08:07:11;52072.41;;;-142.34;32.94
12951;BME280;6540;50.858;7.232;2024-03-02T08:09:36;52046.19;;;-142.34;32.52
12951;BME280;6540;50.858;7.232;2024-03-02T08:12:02;52068.38;;;-142.34;33.24
12951;BME280;6540;50.858;7.232;2024-03-02T08:14:27;52058.28;;;-142.34;32.71
12951;BME280;6540;50.858;7.232;2024-03-02T08:16:52;52110.75;;;-142.34;34.00
12951;BME280;6540;50.858;7.232;2024-03-02T08:19:18;52062.34;;;-142.34;33.04
12951;BME280;6540;50.858;7.232;2024-03-02T08:21:43;52050.22;;;-142.34;32.50
12951;BME280;6540;50.858;7.232;2024-03-02T08:24:09;52048.22;;;-142.34;32.81
12951;BME280;6540;50.858;7.232;2024-03-02T08:26:34;52048.22;;;-142.34;33.85
12951;BME280;6540;50.858;7.232;2024-03-02T08:29:00;52064.34;;;-142.34;34.38
12951;BME280;6540;50.858;7.232;2024-03-02T08:31:27;52070.41;;;-142.34;33.59
12951;BME280;6540;50.858;7.232;2024-03-02T08:33:53;52044.19;;;-142.34;33.80
12951;BME280;6540;50.858;7.232;2024-03-02T08:36:18;52040.13;;;-142.34;32.85
12951;BME280;6540;50.858;7.232;2024-03-02T08:38:44;52046.19;;;-142.34;33.69
12951;BME280;6540;50.858;7.232;2024-03-02T08:41:10;52060.31;;;-142.34;32.47
12951;BME280;6540;50.858;7.232;2024-03-02T08:43:38;52064.34;;;-142.34;32.55
12951;BME280;6540;50.858;7.232;2024-03-02T08:46:03;52062.34;;;-142.34;33.10
12951;BME280;6540;50.858;7.232;2024-03-02T08:48:29;52038.13;;;-142.34;33.20
12951;BME280;6540;50.858;7.232;2024-03-02T08:50:54;52072.41;;;-142.34;33.64
12951;BME280;6540;50.858;7.232;2024-03-02T08:53:20;52044.19;;;-142.34;32.66
12951;BME280;6540;50.858;7.232;2024-03-02T08:55:46;52062.34;;;-142.34;32.38
12951;BME280;6540;50.858;7.232;2024-03-02T08:58:12;52080.50;;;-142.34;32.87
12951;BME280;6540;50.858;7.232;2024-03-02T09:00:37;52082.50;;;-142.34;32.52
12951;BME280;6540;50.858;7.232;2024-03-02T09:03:03;52060.31;;;-142.34;33.90
12951;BME280;6540;50.858;7.232;2024-03-02T09:05:28;52074.44;;;-142.34;32.28
12951;BME280;6540;50.858;7.232;2024-03-02T09:07:54;52080.50;;;-142.34;32.00
12951;BME280;6540;50.858;7.232;2024-03-02T09:10:19;52011.91;;;-142.34;31.72
12951;BME280;6540;50.858;7.232;2024-03-02T09:12:44;52052.25;;;-142.34;33.09
12951;BME280;6540;50.858;7.232;2024-03-02T09:15:10;52060.31;;;-142.34;31.99
12951;BME280;6540;50.858;7.232;2024-03-02T09:17:35;52086.53;;;-142.34;31.94
12951;BME280;6540;50.858;7.232;2024-03-02T09:20:01;52052.25;;;-142.34;32.21
12951;BME280;6540;50.858;7.232;2024-03-02T09:22:26;52068.38;;;-142.34;32.33
12951;BME280;6540;50.858;7.232;2024-03-02T09:24:51;52048.22;;;-142.34;32.70
12951;BME280;6540;50.858;7.232;2024-03-02T09:27:17;52062.34;;;-142.34;32.94
12951;BME280;6540;50.858;7.232;2024-03-02T09:29:42;52056.28;;;-142.34;33.39
12951;BME280;6540;50.858;7.232;2024-03-02T09:32:08;52080.50;;;-142.34;32.71
12951;BME280;6540;50.858;7.232;2024-03-02T09:34:37;52042.16;;;-142.34;31.75
12951;BME280;6540;50.858;7.232;2024-03-02T09:37:02;52032.06;;;-142.34;32.50
12951;BME280;6540;50.858;7.232;2024-03-02T09:39:29;52030.06;;;-142.34;32.49
12951;BME280;6540;50.858;7.232;2024-03-02T09:41:54;52080.50;;;-142.34;32.95
12951;BME280;6540;50.858;7.232;2024-03-02T09:44:20;52050.22;;;-142.34;32.57
12951;BME280;6540;50.858;7.232;2024-03-02T09:46:51;52056.28;;;-142.34;31.41
12951;BME280;6540;50.858;7.232;2024-03-02T09:49:16;52028.03;;;-142.34;32.27
12951;BME280;6540;50.858;7.232;2024-03-02T09:51:46;52044.19;;;-142.34;30.81
12951;BME280;6540;50.858;7.232;2024-03-02T09:54:12;52062.34;;;-142.34;31.57
12951;BME280;6540;50.858;7.232;2024-03-02T09:56:38;52028.03;;;-142.34;31.96
12951;BME280;6540;50.858;7.232;2024-03-02T09:59:04;52038.13;;;-142.34;32.01
12951;BME280;6540;50.858;7.232;2024-03-02T10:01:30;52096.63;;;-142.34;32.58
12951;BME280;6540;50.858;7.232;2024-03-02T10:04:00;52048.22;;;-142.34;31.74
12951;BME280;6540;50.858;7.232;2024-03-02T10:06:27;52036.09;;;-142.34;32.01
12951;BME280;6540;50.858;7.232;2024-03-02T10:08:53;52076.44;;;-142.34;31.07
12951;BME280;6540;50.858;7.232;2024-03-02T10:11:33;52056.28;;;-142.34;31.47
12951;BME280;6540;50.858;7.232;2024-03-02T10:16:35;52056.28;;;-142.34;31.06
12951;BME280;6540;50.858;7.232;2024-03-02T10:19:22;52050.22;;;-142.34;32.24
12951;BME280;6540;50.858;7.232;2024-03-02T10:21:48;52024.00;;;-142.34;31.02
12951;BME280;6540;50.858;7.232;2024-03-02T10:24:17;52050.22;;;-142.34;30.92
12951;BME280;6540;50.858;7.232;2024-03-02T10:26:43;52070.41;;;-142.34;30.64
12951;BME280;6540;50.858;7.232;2024-03-02T10:29:09;52040.13;;;-142.34;32.00
12951;BME280;6540;50.858;7.232;2024-03-02T10:31:37;52017.94;;;-142.34;32.15
12951;BME280;6540;50.858;7.232;2024-03-02T10:34:02;52015.94;;;-142.34;31.09
12951;BME280;6540;50.858;7.232;2024-03-02T10:36:28;52046.19;;;-142.34;31.65
12951;BME280;6540;50.858;7.232;2024-03-02T10:38:56;52019.97;;;-142.34;31.09
12951;BME280;6540;50.858;7.232;2024-03-02T10:41:26;52044.19;;;-142.34;30.92
12951;BME280;6540;50.858;7.232;2024-03-02T10:43:52;52054.25;;;-142.34;31.32
12951;BME280;6540;50.858;7.232;2024-03-02T10:46:21;52013.91;;;-142.34;32.89
12951;BME280;6540;50.858;7.232;2024-03-02T10:48:47;52019.97;;;-142.34;31.77
12951;BME280;6540;50.858;7.232;2024-03-02T10:51:14;52070.41;;;-142.34;31.06
12951;BME280;6540;50.858;7.232;2024-03-02T10:53:49;52015.94;;;-142.34;31.41
12951;BME280;6540;50.858;7.232;2024-03-02T10:56:19;52032.06;;;-142.34;31.35
12951;BME280;6540;50.858;7.232;2024-03-02T10:58:51;52062.34;;;-142.34;32.25
12951;BME280;6540;50.858;7.232;2024-03-02T11:01:20;52064.34;;;-142.34;31.42
12951;BME280;6540;50.858;7.232;2024-03-02T11:03:47;52044.19;;;-142.34;31.48
12951;BME280;6540;50.858;7.232;2024-03-02T11:06:13;52028.03;;;-142.34;31.61
12951;BME280;6540;50.858;7.232;2024-03-02T11:08:40;51999.78;;;-142.34;31.45
12951;BME280;6540;50.858;7.232;2024-03-02T11:11:07;52036.09;;;-142.34;31.84
12951;BME280;6540;50.858;7.232;2024-03-02T11:13:38;52017.94;;;-142.34;31.42
12951;BME280;6540;50.858;7.232;2024-03-02T11:16:10;51999.78;;;-142.34;31.84
12951;BME280;6540;50.858;7.232;2024-03-02T11:18:38;52007.84;;;-142.34;31.23
12951;BME280;6540;50.858;7.232;2024-03-02T11:21:06;52019.97;;;-142.34;31.13
12951;BME280;6540;50.858;7.232;2024-03-02T11:23:32;52044.19;;;-142.34;30.98
12951;BME280;6540;50.858;7.232;2024-03-02T11:26:21;52015.94;;;-142.34;30.72
12951;BME280;6540;50.858;7.232;2024-03-02T11:28:47;52015.94;;;-142.34;31.36
12951;BME280;6540;50.858;7.232;2024-03-02T11:31:13;52036.09;;;-142.34;31.19
12951;BME280;6540;50.858;7.232;2024-03-02T11:33:38;51999.78;;;-142.34;30.82
12951;BME280;6540;50.858;7.232;2024-03-02T11:36:06;52036.09;;;-142.34;30.38
12951;BME280;6540;50.858;7.232;2024-03-02T11:38:32;52046.19;;;-142.34;30.41
12951;BME280;6540;50.858;7.232;2024-03-02T11:41:05;52032.06;;;-142.34;30.57
12951;BME280;6540;50.858;7.232;2024-03-02T11:43:32;51991.72;;;-142.34;30.59
12951;BME280;6540;50.858;7.232;2024-03-02T11:46:03;52028.03;;;-142.34;30.71
12951;BME280;6540;50.858;7.232;2024-03-02T11:48:32;52011.91;;;-142.34;31.26
12951;BME280;6540;50.858;7.232;2024-03-02T11:50:59;51999.78;;;-142.34;31.66
12951;BME280;6540;50.858;7.232;2024-03-02T11:53:26;52036.09;;;-142.34;30.29
12951;BME280;6540;50.858;7.232;2024-03-02T11:55:55;52052.25;;;-142.34;30.30
12951;BME280;6540;50.858;7.232;2024-03-02T11:58:20;52032.06;;;-142.34;32.03
12951;BME280;6540;50.858;7.232;2024-03-02T12:00:55;52015.94;;;-142.34;30.84
12951;BME280;6540;50.858;7.232;2024-03-02T12:03:23;52015.94;;;-142.34;30.36
12951;BME280;6540;50.858;7.232;2024-03-02T12:05:51;52007.84;;;-142.34;30.84
12951;BME280;6540;50.858;7.232;2024-03-02T12:08:16;52003.81;;;-142.34;31.02
12951;BME280;6540;50.858;7.232;2024-03-02T12:10:42;52028.03;;;-142.34;30.79
12951;BME280;6540;50.858;7.232;2024-03-02T12:13:10;52024.00;;;-142.34;30.17
12951;BME280;6540;50.858;7.232;2024-03-02T12:15:37;52007.84;;;-142.34;30.59
12951;BME280;6540;50.858;7.232;2024-03-02T12:18:03;52028.03;;;-142.34;30.16
12951;BME280;6540;50.858;7.232;2024-03-02T12:20:29;51965.50;;;-142.34;30.29
12951;BME280;6540;50.858;7.232;2024-03-02T12:22:57;51991.72;;;-142.34;30.49
12951;BME280;6540;50.858;7.232;2024-03-02T12:25:24;52028.03;;;-142.34;30.56
12951;BME280;6540;50.858;7.232;2024-03-02T12:27:51;52019.97;;;-142.34;30.60
12951;BME280;6540;50.858;7.232;2024-03-02T12:30:18;51995.75;;;-142.34;30.26
12951;BME280;6540;50.858;7.232;2024-03-02T12:32:46;51991.72;;;-142.34;29.60
12951;BME280;6540;50.858;7.232;2024-03-02T12:35:13;51993.75;;;-142.34;30.09
12951;BME280;6540;50.858;7.232;2024-03-02T12:37:45;51979.63;;;-142.34;30.09
12951;BME280;6540;50.858;7.232;2024-03-02T12:40:12;51959.44;;;-142.34;30.57
12951;BME280;6540;50.858;7.232;2024-03-02T12:42:38;51971.53;;;-142.34;31.09
12951;BME280;6540;50.858;7.232;2024-03-02T12:45:04;51991.72;;;-142.34;30.51
12951;BME280;6540;50.858;7.232;2024-03-02T12:47:29;52003.81;;;-142.34;30.36
12951;BME280;6540;50.858;7.232;2024-03-02T12:49:55;51993.75;;;-142.34;30.69
12951;BME280;6540;50.858;7.232;2024-03-02T12:52:21;51971.53;;;-142.34;29.29
12951;BME280;6540;50.858;7.232;2024-03-02T12:54:47;52007.84;;;-142.34;31.09